createdAt,value
2022-11-02T00:01:44.694Z,95289.72
2022-11-02T00:04:12.304Z,95274.22
2022-11-02T00:06:40.358Z,95285.81
2022-11-02T00:09:07.340Z,95302.78
2022-11-02T00:11:34.003Z,95288.91
2022-11-02T00:14:00.700Z,95282.84
2022-11-02T00:16:27.422Z,95305.34
2022-11-02T00:18:58.800Z,95301.00
2022-11-02T00:21:27.641Z,95304.44
2022-11-02T00:23:57.934Z,95276.28
2022-11-02T00:26:26.460Z,95287.88
2022-11-02T00:28:55.566Z,95295.91
2022-11-02T00:31:22.320Z,95295.47
2022-11-02T00:33:49.856Z,95312.34
2022-11-02T00:36:17.659Z,95297.69
2022-11-02T00:38:44.372Z,95327.03
2022-11-02T00:41:12.904Z,95327.50
2022-11-02T00:43:40.877Z,95347.72
2022-11-02T00:46:07.620Z,95340.81
2022-11-02T00:48:34.297Z,95335.81
2022-11-02T00:51:00.996Z,95336.47
2022-11-02T00:53:29.475Z,95331.59
2022-11-02T00:55:56.955Z,95337.19
2022-11-02T00:58:23.703Z,95330.94
2022-11-02T01:00:51.245Z,95274.19
2022-11-02T01:03:18.056Z,95291.09
2022-11-02T01:05:44.810Z,95318.91
2022-11-02T01:08:12.036Z,95328.41
2022-11-02T01:10:40.621Z,95325.28
2022-11-02T01:13:11.904Z,95327.19
2022-11-02T01:15:40.826Z,95309.59
2022-11-02T01:18:07.695Z,95321.00
2022-11-02T01:20:34.701Z,95324.13
2022-11-02T01:23:01.390Z,95329.19
2022-11-02T01:25:28.119Z,95298.94
2022-11-02T01:27:55.629Z,95273.13
2022-11-02T01:30:22.578Z,95294.59
2022-11-02T01:32:49.565Z,95307.53
2022-11-02T01:35:16.901Z,95282.63
2022-11-02T01:37:43.735Z,95268.31
2022-11-02T01:40:12.120Z,95234.50
2022-11-02T01:42:38.825Z,95259.91
2022-11-02T01:45:06.121Z,95295.75
2022-11-02T01:47:38.129Z,95288.63
2022-11-02T01:50:09.655Z,95282.06
2022-11-02T01:52:39.472Z,95295.72
2022-11-02T01:55:16.632Z,95313.56
2022-11-02T01:57:51.567Z,95311.97
2022-11-02T02:00:18.694Z,95319.75
2022-11-02T02:03:00.204Z,95301.28
2022-11-02T02:05:29.741Z,95320.22
2022-11-02T02:07:58.072Z,95327.66
2022-11-02T02:10:26.485Z,95326.16
2022-11-02T02:12:53.284Z,95322.59
2022-11-02T02:15:26.337Z,95313.59
2022-11-02T02:17:57.461Z,95295.81
2022-11-02T02:20:24.466Z,95307.13
2022-11-02T02:23:14.536Z,95316.00
2022-11-02T02:25:47.328Z,95333.47
2022-11-02T02:28:33.762Z,95335.69
2022-11-02T02:31:28.056Z,95335.94
2022-11-02T02:34:17.899Z,95318.81
2022-11-02T02:36:58.345Z,95316.84
2022-11-02T02:39:31.047Z,95337.72
2022-11-02T02:42:11.820Z,95329.50
2022-11-02T02:44:47.059Z,95318.28
2022-11-02T02:47:19.288Z,95321.66
2022-11-02T02:49:53.980Z,95323.59
2022-11-02T02:52:23.522Z,95339.56
2022-11-02T02:54:53.089Z,95339.00
2022-11-02T02:57:23.824Z,95290.41
2022-11-02T02:59:50.639Z,95313.94
2022-11-02T03:02:36.496Z,95326.81
2022-11-02T03:05:26.980Z,95317.09
2022-11-02T03:07:55.309Z,95310.06
2022-11-02T03:10:54.710Z,95334.00
2022-11-02T03:13:24.932Z,95333.59
2022-11-02T03:16:01.358Z,95351.34
2022-11-02T03:18:47.538Z,95337.75
2022-11-02T03:21:25.680Z,95359.94
2022-11-02T03:24:09.549Z,95358.97
2022-11-02T03:26:49.245Z,95358.13
2022-11-02T03:29:27.045Z,95358.97
2022-11-02T03:32:06.939Z,95353.00
2022-11-02T03:35:03.888Z,95365.53
2022-11-02T03:37:41.945Z,95375.25
2022-11-02T03:40:16.071Z,95388.16
2022-11-02T03:42:45.703Z,95364.75
2022-11-02T03:45:17.992Z,95374.56
2022-11-02T03:47:50.480Z,95357.81
2022-11-02T03:50:21.856Z,95356.34
2022-11-02T03:52:58.549Z,95365.81
2022-11-02T03:55:31.772Z,95368.53
2022-11-02T03:57:59.461Z,95343.63
2022-11-02T04:00:34.500Z,95361.97
2022-11-02T04:03:08.716Z,95360.69
2022-11-02T04:05:40.851Z,95350.47
2022-11-02T04:08:31.997Z,95341.81
2022-11-02T04:11:20.753Z,95346.66
2022-11-02T04:14:07.740Z,95388.63
2022-11-02T04:16:38.555Z,95381.16
2022-11-02T04:19:29.316Z,95397.66
2022-11-02T04:22:26.284Z,95379.84
2022-11-02T04:25:17.858Z,95384.94
2022-11-02T04:27:52.728Z,95393.84
2022-11-02T04:30:24.038Z,95387.38
2022-11-02T04:33:13.028Z,95391.44
2022-11-02T04:36:04.865Z,95388.16
2022-11-02T04:38:43.208Z,95385.34
2022-11-02T04:41:38.429Z,95385.09
2022-11-02T04:44:11.376Z,95382.59
2022-11-02T04:46:39.471Z,95362.56
2022-11-02T04:49:08.747Z,95326.50
2022-11-02T04:51:40.137Z,95368.09
2022-11-02T04:54:08.269Z,95390.41
2022-11-02T04:56:35.072Z,95386.34
2022-11-02T04:59:01.821Z,95387.81
2022-11-02T05:01:31.038Z,95380.16
2022-11-02T05:03:59.940Z,95362.97
2022-11-02T05:06:29.592Z,95381.06
2022-11-02T05:08:56.393Z,95399.38
2022-11-02T05:11:24.412Z,95402.41
2022-11-02T05:13:52.136Z,95404.63
2022-11-02T05:16:19.886Z,95389.53
2022-11-02T05:18:49.303Z,95381.97
2022-11-02T05:21:17.722Z,95400.31
2022-11-02T05:23:44.595Z,95378.53
2022-11-02T05:26:12.841Z,95376.94
2022-11-02T05:28:44.348Z,95381.44
2022-11-02T05:31:11.136Z,95395.91
2022-11-02T05:33:38.476Z,95396.66
2022-11-02T05:36:09.552Z,95397.00
2022-11-02T05:41:06.713Z,95395.78
2022-11-02T05:43:37.270Z,95400.13
2022-11-02T05:46:06.363Z,95394.03
2022-11-02T05:48:33.673Z,95385.94
2022-11-02T05:51:02.976Z,95412.59
2022-11-02T05:53:32.620Z,95404.44
2022-11-02T05:56:00.972Z,95409.09
2022-11-02T05:58:29.120Z,95395.09
2022-11-02T06:01:00.282Z,95406.56
2022-11-02T06:03:27.063Z,95401.31
2022-11-02T06:06:04.945Z,95401.31
2022-11-02T06:08:33.816Z,95407.47
2022-11-02T06:11:11.286Z,95405.56
2022-11-02T06:13:38.828Z,95398.50
2022-11-02T06:16:09.485Z,95395.47
2022-11-02T06:18:37.488Z,95418.22
2022-11-02T06:21:04.765Z,95425.19
2022-11-02T06:23:31.862Z,95431.69
2022-11-02T06:26:00.918Z,95427.56
2022-11-02T06:28:29.924Z,95429.47
2022-11-02T06:30:57.428Z,95427.50
2022-11-02T06:33:24.228Z,95428.78
2022-11-02T06:35:52.655Z,95434.72
2022-11-02T06:38:19.773Z,95436.47
2022-11-02T06:41:00.543Z,95445.09
2022-11-02T06:43:27.324Z,95442.34
2022-11-02T06:45:55.720Z,95441.69
2022-11-02T06:48:22.617Z,95447.41
2022-11-02T06:50:49.334Z,95447.44
2022-11-02T06:53:16.107Z,95444.53
2022-11-02T06:55:42.830Z,95438.41
2022-11-02T06:58:10.239Z,95421.72
2022-11-02T07:00:37.263Z,95432.13
2022-11-02T07:03:07.237Z,95430.59
2022-11-02T07:05:35.179Z,95411.66
2022-11-02T07:08:02.510Z,95454.84
2022-11-02T07:10:30.768Z,95457.22
2022-11-02T07:12:59.635Z,95450.84
2022-11-02T07:15:27.467Z,95445.88
2022-11-02T07:17:54.443Z,95388.00
2022-11-02T07:20:21.248Z,95446.09
2022-11-02T07:22:59.549Z,95473.09
2022-11-02T07:25:27.974Z,95484.03
2022-11-02T07:27:55.032Z,95486.44
2022-11-02T07:30:22.114Z,95476.72
2022-11-02T07:32:48.836Z,95477.16
2022-11-02T07:35:17.565Z,95482.00
2022-11-02T07:37:45.635Z,95473.13
2022-11-02T07:40:14.706Z,95508.69
2022-11-02T07:42:48.853Z,95542.91
2022-11-02T07:45:18.716Z,95544.88
2022-11-02T07:47:46.169Z,95553.50
2022-11-02T07:50:16.013Z,95550.81
2022-11-02T07:52:47.576Z,95526.53
2022-11-02T07:55:17.261Z,95541.50
2022-11-02T07:57:44.915Z,95545.53
2022-11-02T08:00:12.062Z,95558.09
2022-11-02T08:02:39.403Z,95562.00
2022-11-02T08:05:06.474Z,95570.59
2022-11-02T08:07:33.251Z,95548.41
2022-11-02T08:10:01.296Z,95556.59
2022-11-02T08:12:28.777Z,95538.78
2022-11-02T08:14:58.233Z,95544.69
2022-11-02T08:17:26.752Z,95487.25
2022-11-02T08:19:53.498Z,95529.03
2022-11-02T08:22:20.254Z,95508.47
2022-11-02T08:24:46.930Z,95559.41
2022-11-02T08:27:13.640Z,95564.56
2022-11-02T08:29:40.358Z,95544.41
2022-11-02T08:32:07.122Z,95504.22
2022-11-02T08:34:33.848Z,95507.56
2022-11-02T08:37:01.689Z,95488.56
2022-11-02T08:39:30.129Z,95482.88
2022-11-02T08:41:56.970Z,95447.84
2022-11-02T08:44:23.682Z,95464.69
2022-11-02T08:46:50.458Z,95454.47
2022-11-02T08:49:18.828Z,95477.84
2022-11-02T08:51:47.522Z,95455.81
2022-11-02T08:54:14.503Z,95501.28
2022-11-02T08:56:42.297Z,95491.16
2022-11-02T08:59:09.056Z,95475.25
2022-11-02T09:01:35.865Z,95451.56
2022-11-02T09:04:02.723Z,95459.38
2022-11-02T09:06:30.057Z,95463.94
2022-11-02T09:08:58.132Z,95477.03
2022-11-02T09:11:27.317Z,95521.97
2022-11-02T09:13:56.860Z,95503.81
2022-11-02T09:16:23.978Z,95503.44
2022-11-02T09:18:50.702Z,95490.84
2022-11-02T09:21:17.408Z,95524.97
2022-11-02T09:23:44.507Z,95535.00
2022-11-02T09:26:12.014Z,95507.41
2022-11-02T09:28:38.735Z,95502.03
2022-11-02T09:31:08.905Z,95507.09
2022-11-02T09:33:38.689Z,95516.56
2022-11-02T09:36:06.426Z,95531.72
2022-11-02T09:38:33.293Z,95527.34
2022-11-02T09:41:00.398Z,95530.66
2022-11-02T09:43:49.357Z,95535.25
2022-11-02T09:46:27.321Z,95549.44
2022-11-02T09:49:02.201Z,95541.16
2022-11-02T09:51:35.591Z,95566.16
2022-11-02T09:54:19.901Z,95577.94
2022-11-02T09:56:49.156Z,95571.22
2022-11-02T09:59:17.305Z,95552.25
2022-11-02T10:02:08.990Z,95560.66
2022-11-02T10:04:41.772Z,95583.56
2022-11-02T10:07:16.329Z,95564.97
2022-11-02T10:09:53.737Z,95552.56
2022-11-02T10:12:47.325Z,95549.50
2022-11-02T10:15:36.649Z,95563.31
2022-11-02T10:18:06.688Z,95550.09
2022-11-02T10:20:40.644Z,95562.63
2022-11-02T10:23:13.376Z,95560.66
2022-11-02T10:25:40.292Z,95556.94
2022-11-02T10:28:16.058Z,95573.13
2022-11-02T10:30:44.623Z,95561.72
2022-11-02T10:33:16.518Z,95576.94
2022-11-02T10:36:18.597Z,95561.78
2022-11-02T10:39:09.377Z,95575.38
2022-11-02T10:42:08.633Z,95550.63
2022-11-02T10:45:14.465Z,95569.59
2022-11-02T10:48:07.944Z,95566.16
2022-11-02T10:50:48.945Z,95580.66
2022-11-02T10:53:39.965Z,95568.69
2022-11-02T10:56:18.499Z,95555.75
2022-11-02T10:58:52.909Z,95574.97
2022-11-02T11:01:19.981Z,95573.13
2022-11-02T11:03:55.328Z,95554.25
2022-11-02T11:06:24.165Z,95550.78
2022-11-02T11:08:53.878Z,95571.38
2022-11-02T11:11:36.039Z,95561.66
2022-11-02T11:16:54.385Z,95578.09
2022-11-02T11:22:22.696Z,95561.38
2022-11-02T11:24:49.748Z,95569.22
2022-11-02T11:27:19.842Z,95541.13
2022-11-02T11:29:55.759Z,95543.94
2022-11-02T11:32:30.495Z,95550.06
2022-11-02T11:35:05.761Z,95562.56
2022-11-02T11:37:34.409Z,95541.09
2022-11-02T11:40:20.982Z,95556.06
2022-11-02T11:42:51.450Z,95545.19
2022-11-02T11:45:24.905Z,95528.88
2022-11-02T11:48:04.757Z,95542.75
2022-11-02T11:50:32.910Z,95551.00
2022-11-02T11:53:26.261Z,95538.75
2022-11-02T11:55:58.492Z,95549.41
2022-11-02T11:58:35.166Z,95541.38
2022-11-02T12:01:09.318Z,95527.53
2022-11-02T12:03:53.822Z,95551.44
2022-11-02T12:06:38.675Z,95545.16
2022-11-02T12:09:20.448Z,95548.31
2022-11-02T12:11:56.244Z,95544.03
2022-11-02T12:14:47.647Z,95521.78
2022-11-02T12:17:28.049Z,95532.00
2022-11-02T12:20:37.048Z,95523.53
2022-11-02T12:23:22.801Z,95516.00
2022-11-02T12:25:52.393Z,95514.44
2022-11-02T12:28:40.871Z,95497.63
2022-11-02T12:31:28.825Z,95508.81
2022-11-02T12:34:27.465Z,95495.75
2022-11-02T12:37:35.472Z,95517.56
2022-11-02T12:40:30.052Z,95499.06
2022-11-02T12:43:22.646Z,95513.88
2022-11-02T12:46:21.668Z,95513.91
2022-11-02T12:49:13.397Z,95498.50
2022-11-02T12:51:51.061Z,95495.28
2022-11-02T12:54:24.894Z,95500.59
2022-11-02T12:56:53.984Z,95519.19
2022-11-02T12:59:20.957Z,95527.56
2022-11-02T13:01:53.132Z,95516.50
2022-11-02T13:04:30.308Z,95506.38
2022-11-02T13:07:04.727Z,95483.97
2022-11-02T13:09:51.328Z,95485.34
2022-11-02T13:12:22.747Z,95498.13
2022-11-02T13:14:53.834Z,95494.56
2022-11-02T13:17:25.429Z,95483.22
2022-11-02T13:19:56.111Z,95507.72
2022-11-02T13:22:28.621Z,95518.47
2022-11-02T13:25:13.463Z,95522.84
2022-11-02T13:27:49.776Z,95514.88
2022-11-02T13:30:19.300Z,95496.91
2022-11-02T13:33:01.349Z,95498.56
2022-11-02T13:35:43.267Z,95488.38
2022-11-02T13:38:12.994Z,95506.59
2022-11-02T13:41:14.069Z,95494.66
2022-11-02T13:43:59.888Z,95496.56
2022-11-02T13:46:33.631Z,95494.63
2022-11-02T13:49:22.055Z,95502.47
2022-11-02T13:51:53.561Z,95496.38
2022-11-02T13:54:54.657Z,95506.69
2022-11-02T13:57:43.639Z,95503.44
2022-11-02T14:00:22.588Z,95493.56
2022-11-02T14:02:55.748Z,95502.63
2022-11-02T14:05:30.707Z,95485.38
2022-11-02T14:08:05.515Z,95486.75
2022-11-02T14:10:40.705Z,95500.56
2022-11-02T14:13:14.547Z,95501.56
2022-11-02T14:15:42.613Z,95492.25
2022-11-02T14:18:09.685Z,95493.34
2022-11-02T14:20:44.133Z,95496.56
2022-11-02T14:23:19.169Z,95490.31
2022-11-02T14:25:45.896Z,95492.78
2022-11-02T14:28:21.856Z,95496.84
2022-11-02T14:31:05.319Z,95496.59
2022-11-02T14:33:51.969Z,95507.13
2022-11-02T14:36:20.053Z,95487.31
2022-11-02T14:38:52.332Z,95494.66
2022-11-02T14:41:35.452Z,95490.69
2022-11-02T14:44:31.951Z,95482.91
2022-11-02T14:47:09.825Z,95487.84
2022-11-02T14:49:56.970Z,95471.41
2022-11-02T14:52:29.984Z,95492.16
2022-11-02T14:55:07.604Z,95487.06
2022-11-02T14:57:59.428Z,95485.47
2022-11-02T15:00:35.796Z,95475.03
2022-11-02T15:03:06.982Z,95469.06
2022-11-02T15:05:37.476Z,95483.16
2022-11-02T15:08:16.309Z,95473.22
2022-11-02T15:10:45.666Z,95482.72
2022-11-02T15:13:21.595Z,95482.50
2022-11-02T15:15:51.102Z,95494.84
2022-11-02T15:18:30.275Z,95482.19
2022-11-02T15:21:17.177Z,95484.75
2022-11-02T15:24:13.895Z,95464.78
2022-11-02T15:26:55.494Z,95465.47
2022-11-02T15:29:37.003Z,95473.31
2022-11-02T15:32:10.258Z,95461.53
2022-11-02T15:34:43.861Z,95460.06
2022-11-02T15:37:18.478Z,95446.06
2022-11-02T15:39:54.511Z,95455.00
2022-11-02T15:42:43.118Z,95469.00
2022-11-02T15:45:46.928Z,95464.41
2022-11-02T15:48:46.240Z,95432.91
2022-11-02T15:51:24.761Z,95431.72
2022-11-02T15:54:10.276Z,95447.63
2022-11-02T15:56:44.749Z,95446.03
2022-11-02T15:59:47.862Z,95451.13
2022-11-02T16:02:24.091Z,95441.34
2022-11-02T16:04:57.274Z,95437.00
2022-11-02T16:07:33.515Z,95444.09
2022-11-02T16:10:31.581Z,95422.22
2022-11-02T16:13:07.913Z,95438.44
2022-11-02T16:15:35.654Z,95430.91
2022-11-02T16:18:02.800Z,95420.81
2022-11-02T16:20:35.886Z,95424.59
2022-11-02T16:23:06.479Z,95432.53
2022-11-02T16:25:39.612Z,95432.47
2022-11-02T16:28:21.322Z,95439.56
2022-11-02T16:31:15.694Z,95414.84
2022-11-02T16:33:45.648Z,95419.88
2022-11-02T16:36:16.691Z,95423.59
2022-11-02T16:39:19.127Z,95425.44
2022-11-02T16:41:55.902Z,95429.47
2022-11-02T16:44:28.712Z,95436.25
2022-11-02T16:47:17.357Z,95435.38
2022-11-02T16:49:51.541Z,95442.00
2022-11-02T16:52:25.054Z,95437.25
2022-11-02T16:54:52.255Z,95435.97
2022-11-02T16:57:26.050Z,95435.38
2022-11-02T17:00:03.900Z,95429.03
2022-11-02T17:02:42.890Z,95433.41
2022-11-02T17:05:21.233Z,95444.06
2022-11-02T17:08:20.446Z,95460.13
2022-11-02T17:10:47.901Z,95444.84
2022-11-02T17:13:21.659Z,95429.31
2022-11-02T17:15:52.148Z,95414.13
2022-11-02T17:18:22.313Z,95426.75
2022-11-02T17:21:28.866Z,95429.16
2022-11-02T17:23:57.579Z,95444.19
2022-11-02T17:26:24.925Z,95457.28
2022-11-02T17:29:14.119Z,95446.38
2022-11-02T17:31:42.953Z,95447.06
2022-11-02T17:34:20.010Z,95447.88
2022-11-02T17:36:50.036Z,95451.59
2022-11-02T17:39:19.741Z,95467.25
2022-11-02T17:42:12.790Z,95464.78
2022-11-02T17:44:40.002Z,95461.94
2022-11-02T17:47:18.143Z,95459.97
2022-11-02T17:49:44.912Z,95458.25
2022-11-02T17:52:14.396Z,95466.44
2022-11-02T17:54:41.525Z,95452.94
2022-11-02T17:57:15.238Z,95453.97
2022-11-02T17:59:42.757Z,95453.06
2022-11-02T18:02:13.949Z,95458.78
2022-11-02T18:04:40.870Z,95451.91
2022-11-02T18:07:09.403Z,95456.41
2022-11-02T18:09:37.061Z,95438.88
2022-11-02T18:12:04.237Z,95442.19
2022-11-02T18:14:31.021Z,95458.03
2022-11-02T18:16:58.146Z,95458.53
2022-11-02T18:19:24.980Z,95450.25
2022-11-02T18:21:52.879Z,95457.00
2022-11-02T18:24:19.621Z,95446.19
2022-11-02T18:26:47.168Z,95425.28
2022-11-02T18:29:14.216Z,95418.47
2022-11-02T18:31:41.089Z,95445.50
2022-11-02T18:34:09.897Z,95426.59
2022-11-02T18:36:40.514Z,95424.94
2022-11-02T18:39:08.708Z,95431.66
2022-11-02T18:41:38.220Z,95421.31
2022-11-02T18:44:13.764Z,95419.91
2022-11-02T18:46:42.108Z,95421.75
2022-11-02T18:49:09.308Z,95418.59
2022-11-02T18:51:37.548Z,95418.38
2022-11-02T18:54:06.108Z,95385.75
2022-11-02T18:56:34.244Z,95379.47
2022-11-02T18:59:01.620Z,95378.53
2022-11-02T19:01:29.073Z,95379.84
2022-11-02T19:03:58.395Z,95379.16
2022-11-02T19:06:44.881Z,95362.38
2022-11-02T19:09:19.862Z,95344.47
2022-11-02T19:12:08.789Z,95368.25
2022-11-02T19:14:42.240Z,95373.28
2022-11-02T19:17:11.058Z,95341.78
2022-11-02T19:19:40.968Z,95344.59
2022-11-02T19:22:23.805Z,95344.66
2022-11-02T19:24:51.436Z,95359.75
2022-11-02T19:27:25.046Z,95360.50
2022-11-02T19:29:53.056Z,95342.75
2022-11-02T19:32:20.127Z,95339.03
2022-11-02T19:34:46.992Z,95343.00
2022-11-02T19:37:14.003Z,95351.34
2022-11-02T19:39:40.950Z,95317.69
2022-11-02T19:42:09.187Z,95315.31
2022-11-02T19:44:42.099Z,95331.16
2022-11-02T19:47:09.881Z,95301.13
2022-11-02T19:49:38.189Z,95285.81
2022-11-02T19:52:05.085Z,95315.22
2022-11-02T19:54:31.888Z,95319.56
2022-11-02T19:56:58.941Z,95304.66
2022-11-02T19:59:25.732Z,95315.53
2022-11-02T20:01:53.658Z,95308.25
2022-11-02T20:04:20.374Z,95318.06
2022-11-02T20:06:47.179Z,95313.56
2022-11-02T20:09:16.683Z,95309.91
2022-11-02T20:11:45.280Z,95279.47
2022-11-02T20:14:13.945Z,95283.34
2022-11-02T20:16:41.176Z,95281.78
2022-11-02T20:19:10.207Z,95288.22
2022-11-02T20:21:43.069Z,95280.69
2022-11-02T20:24:11.668Z,95259.16
2022-11-02T20:26:43.227Z,95254.47
2022-11-02T20:29:13.731Z,95238.91
2022-11-02T20:31:44.934Z,95256.59
2022-11-02T20:34:13.020Z,95263.97
2022-11-02T20:36:40.620Z,95250.84
2022-11-02T20:39:09.228Z,95248.16
2022-11-02T20:41:36.281Z,95244.03
2022-11-02T20:44:03.259Z,95242.50
2022-11-02T20:46:41.226Z,95246.88
2022-11-02T20:49:20.866Z,95254.97
2022-11-02T20:51:56.223Z,95264.66
2022-11-02T20:54:24.352Z,95247.88
2022-11-02T20:56:51.123Z,95236.28
2022-11-02T20:59:18.135Z,95223.09
2022-11-02T21:01:45.430Z,95219.09
2022-11-02T21:04:18.505Z,95228.50
2022-11-02T21:06:46.550Z,95230.31
2022-11-02T21:09:13.344Z,95222.44
2022-11-02T21:11:59.543Z,95198.03
2022-11-02T21:14:27.034Z,95203.41
2022-11-02T21:16:55.426Z,95177.91
2022-11-02T21:19:23.405Z,95203.84
2022-11-02T21:21:58.152Z,95205.34
2022-11-02T21:24:26.745Z,95195.34
2022-11-02T21:26:53.741Z,95205.00
2022-11-02T21:29:21.314Z,95217.03
2022-11-02T21:31:48.690Z,95205.28
2022-11-02T21:34:15.826Z,95202.22
2022-11-02T21:36:42.628Z,95204.19
2022-11-02T21:39:10.520Z,95202.72
2022-11-02T21:41:39.307Z,95213.34
2022-11-02T21:44:07.591Z,95202.41
2022-11-02T21:46:36.014Z,95222.38
2022-11-02T21:49:03.025Z,95219.66
2022-11-02T21:51:30.028Z,95216.38
2022-11-02T21:53:57.023Z,95223.00
2022-11-02T21:56:27.800Z,95209.41
2022-11-02T21:58:56.735Z,95198.59
2022-11-02T22:01:48.547Z,95190.44
2022-11-02T22:04:21.726Z,95190.41
2022-11-02T22:06:48.657Z,95189.31
2022-11-02T22:09:15.420Z,95186.28
2022-11-02T22:11:42.821Z,95197.88
2022-11-02T22:14:11.845Z,95198.59
2022-11-02T22:16:41.313Z,95207.66
2022-11-02T22:19:08.339Z,95211.19
2022-11-02T22:21:46.130Z,95183.31
2022-11-02T22:24:13.157Z,95208.53
2022-11-02T22:26:41.268Z,95193.50
2022-11-02T22:29:09.526Z,95197.53
2022-11-02T22:31:40.554Z,95192.75
2022-11-02T22:34:10.770Z,95184.97
2022-11-02T22:36:40.804Z,95194.78
2022-11-02T22:39:11.920Z,95190.72
2022-11-02T22:41:46.181Z,95174.97
2022-11-02T22:44:14.954Z,95174.97
2022-11-02T22:46:44.029Z,95172.06
2022-11-02T22:49:13.092Z,95161.75
2022-11-02T22:51:45.489Z,95180.22
2022-11-02T22:54:15.695Z,95190.66
2022-11-02T22:56:43.535Z,95184.88
2022-11-02T22:59:11.530Z,95185.94
2022-11-02T23:01:38.812Z,95177.72
2022-11-02T23:04:07.177Z,95189.91
2022-11-02T23:06:34.765Z,95172.63
2022-11-02T23:09:02.199Z,95168.88
2022-11-02T23:11:32.041Z,95176.97
2022-11-02T23:14:13.536Z,95173.00
2022-11-02T23:16:42.349Z,95176.16
2022-11-02T23:19:28.321Z,95145.25
2022-11-02T23:22:15.685Z,95142.47
2022-11-02T23:25:11.203Z,95137.34
2022-11-02T23:28:13.290Z,95122.84
2022-11-02T23:30:59.507Z,95111.44
2022-11-02T23:33:31.594Z,95112.19
2022-11-02T23:36:11.441Z,95126.28
2022-11-02T23:38:57.282Z,95125.16
2022-11-02T23:41:25.299Z,95117.09
2022-11-02T23:43:52.072Z,95109.94
2022-11-02T23:46:18.793Z,95117.72
2022-11-02T23:48:48.362Z,95109.88
2022-11-02T23:51:36.361Z,95096.41
2022-11-02T23:54:21.784Z,95091.91
2022-11-02T23:56:50.080Z,95105.75
2022-11-02T23:59:18.075Z,95085.03
